Middleport, NY

5:08 AM EDT on August 22, 2014 (GMT -0400)
Aves-Apis | Change Station
CLOSE
Current Station
Personal Weather Station
Location: Middleport, NY
Elevation: 427 ft
Nearby Weather Stations

Elev 427 ft 43.24 °N, 78.49 °W | Updated 11 seconds ago

Mostly Cloudy
Mostly Cloudy
61.4 °F
Feels Like 61.4 °F
N
0.0
Wind Variable Wind from North
Gusts 0.0 mph

Today
High -- | Low -- °F
--% Chance of Precip.
Yesterday
High -- | Low -- °F
Precip. -- in
6:27 AM 8:05 PM
Waning Crescent, 9% visible
Pressure 29.95 in
Visibility 6.0 miles
Clouds Scattered Clouds 800 ft
Mostly Cloudy 6000 ft
Dew Point 60 °F
Humidity 91%
Rainfall 0.00 in
Snow Depth Not available.
UV 0 out of 12
Pollen 7.10 out of 12
Air Quality Not available.
Flu Activity Not available.
METAR KBUF 220854Z 00000KT 6SM BR SCT008 BKN060 19/18 A2996 RMK AO2 SLP141 T01940178 58004

More Conditions Fewer Conditions

Pressure 29.95 in
Visibility 6.0 miles
Clouds Scattered Clouds 800 ft
Mostly Cloudy 6000 ft
Dew Point 60 °F
Humidity 91%
Rainfall 0.00 in
Snow Depth Not available.
UV 0 out of 12
Pollen 7.10 out of 12
Air Quality Not available.
Flu Activity Not available.
METAR KBUF 220854Z 00000KT 6SM BR SCT008 BKN060 19/18 A2996 RMK AO2 SLP141 T01940178 58004

More Conditions Fewer Conditions

10-Day Weather Forecast

Almanac

Astronomy

Aug. 22, 2014 Rise Set
Actual Time 6:27 AM EDT 8:05 PM EDT
Civil Twilight 5:56 AM EDT 8:35 PM EDT
Nautical Twilight 5:20 AM EDT 9:12 PM EDT
Astronomical Twilight 4:41 AM EDT 9:51 PM EDT
Moon 3:46 AM EDT 6:14 PM EDT
Length of Visible Light 14h 38m
Length of Day
13h 38m
Tomorrow will be 2m 43s shorter.
Waning Crescent, 9% of the Moon is Illuminated
Today
Waning Crescent
Aug 25
New
Sep 2
First Quarter
Sep 8
Full
Sep 15
Last Quarter

Today's Extremes

State Highs State Lows

Community

WunderPhotos

Upload Photos

1,746,146 photos uploaded!

Nearby

Air Quality

  Air Quality AQ Index Pollutant
Friday Good
OZONE
Friday Good
PM2.5

Snow Depth

Station Depth Elevation
No new snow has been reported.

Earthquake Activity

City Distance Mag. Time & Date
No recent earthquake activity has been reported nearby.
Minimum magnitude displayed is 2.5.

Coastal Water Temperatures

Place Temperature
Buffalo, NY 72.0 °F

Nearby Weather Stations